Time;durP1;ratioP1;P1;durP2;ratioP2;P2;SDS_P1;SDS_P2;PMS_P1;PMS_P2;Temp;Humidity;BMP_temperature;BMP_pressure;BME280_temperature;BME280_humidity;BME280_pressure;Samples;Min_cycle;Max_cycle;Signal;HPM_P1;HPM_P2
2022/05/22 00:02:21;;;;;;;10.05;3.60;;;10.20;99.90;;;;;;4951644;28;20047;-88
2022/05/22 00:04:46;;;;;;;11.07;3.75;;;10.20;99.90;;;;;;4937457;28;20128;-88
2022/05/22 00:07:12;;;;;;;15.82;3.85;;;10.20;99.90;;;;;;4956167;28;20050;-88
2022/05/22 00:09:38;;;;;;;10.35;4.13;;;10.20;99.90;;;;;;4923285;28;20047;-89
2022/05/22 00:12:06;;;;;;;9.35;3.13;;;10.10;99.90;;;;;;4924217;28;20047;-88
2022/05/22 00:14:32;;;;;;;15.38;3.25;;;10.20;99.90;;;;;;4939029;28;20407;-89
2022/05/22 00:16:59;;;;;;;8.07;3.40;;;10.40;99.90;;;;;;4955977;28;20116;-89
2022/05/22 00:19:29;;;;;;;6.82;3.58;;;10.30;99.90;;;;;;4954774;28;20093;-88
2022/05/22 00:21:55;;;;;;;9.23;3.88;;;10.10;99.90;;;;;;4970811;28;20507;-88
2022/05/22 00:24:23;;;;;;;8.05;3.17;;;10.50;99.90;;;;;;4955339;28;20051;-89
2022/05/22 00:26:49;;;;;;;11.15;3.53;;;10.80;99.90;;;;;;4970543;28;20043;-89
2022/05/22 00:29:16;;;;;;;12.48;4.80;;;10.00;99.90;;;;;;4971736;28;20049;-89
2022/05/22 00:31:42;;;;;;;9.00;3.40;;;10.00;99.90;;;;;;4953908;28;20043;-88
2022/05/22 00:34:08;;;;;;;9.27;3.20;;;9.90;99.90;;;;;;4955177;28;20043;-89
2022/05/22 00:36:34;;;;;;;8.30;2.85;;;9.80;99.90;;;;;;4970592;28;20130;-89
2022/05/22 00:39:01;;;;;;;10.60;3.67;;;11.10;99.90;;;;;;4954305;28;20091;-89
2022/05/22 00:41:27;;;;;;;20.65;3.97;;;9.80;99.90;;;;;;4939542;28;20082;-89
2022/05/22 00:43:54;;;;;;;9.98;3.65;;;9.70;99.90;;;;;;4954497;28;20051;-89
2022/05/22 00:46:22;;;;;;;12.55;3.85;;;9.70;99.90;;;;;;4940344;28;20141;-89
2022/05/22 00:49:27;;;;;;;11.77;4.53;;;10.10;99.90;;;;;;4971686;28;20047;-88
2022/05/22 00:51:57;;;;;;;7.07;3.78;;;9.70;99.90;;;;;;4951181;28;20047;-89
2022/05/22 00:54:26;;;;;;;14.35;4.00;;;9.70;99.90;;;;;;4957852;28;20620;-89
2022/05/22 00:57:04;;;;;;;8.57;3.20;;;9.70;99.90;;;;;;4955770;28;20061;-89
2022/05/22 00:59:40;;;;;;;12.80;4.38;;;9.60;99.90;;;;;;4972562;28;20373;-88
2022/05/22 01:02:07;;;;;;;12.70;4.07;;;9.80;99.90;;;;;;4971354;28;20436;-89
2022/05/22 01:04:36;;;;;;;8.60;3.70;;;9.70;99.90;;;;;;4970380;28;20132;-89
2022/05/22 01:07:06;;;;;;;12.43;3.88;;;9.60;99.90;;;;;;4955337;28;20039;-89
2022/05/22 01:09:32;;;;;;;15.75;4.43;;;9.60;99.90;;;;;;4970283;28;20484;-88
2022/05/22 01:12:13;;;;;;;12.68;5.70;;;10.20;99.90;;;;;;4954709;28;20051;-88
2022/05/22 01:14:40;;;;;;;13.07;4.70;;;9.60;99.90;;;;;;4953432;28;20046;-88
2022/05/22 01:17:08;;;;;;;11.35;5.85;;;10.30;99.90;;;;;;4938297;28;20035;-88
2022/05/22 01:19:35;;;;;;;8.38;4.47;;;10.80;99.90;;;;;;4970612;28;20392;-89
2022/05/22 01:22:07;;;;;;;12.63;5.03;;;9.90;99.90;;;;;;4953865;28;20425;-87
2022/05/22 01:24:33;;;;;;;10.43;4.45;;;9.50;99.90;;;;;;4970286;28;20129;-88
2022/05/22 01:27:02;;;;;;;12.63;4.50;;;10.30;99.90;;;;;;4969166;28;20202;-89
2022/05/22 01:29:28;;;;;;;12.05;4.35;;;10.50;99.90;;;;;;4954622;28;20129;-88
2022/05/22 01:31:54;;;;;;;9.77;4.05;;;9.40;99.90;;;;;;4937455;28;20548;-89
2022/05/22 01:34:20;;;;;;;10.85;4.18;;;9.40;99.90;;;;;;4969802;28;20039;-89
2022/05/22 01:36:45;;;;;;;8.15;4.75;;;9.40;99.90;;;;;;4970100;28;20061;-89
2022/05/22 01:39:12;;;;;;;9.63;3.97;;;9.60;99.90;;;;;;4953023;28;20061;-89
2022/05/22 01:41:37;;;;;;;8.18;4.22;;;9.50;99.90;;;;;;4953927;28;20097;-88
2022/05/22 01:44:03;;;;;;;8.25;4.00;;;9.40;99.90;;;;;;4921161;28;20055;-88
2022/05/22 01:46:29;;;;;;;12.73;4.07;;;9.30;99.90;;;;;;4922043;28;20051;-88
2022/05/22 01:48:56;;;;;;;14.25;4.70;;;10.30;99.90;;;;;;4936908;28;20134;-89
2022/05/22 01:51:21;;;;;;;8.93;4.65;;;9.70;99.90;;;;;;4937587;28;20500;-88
2022/05/22 01:53:47;;;;;;;8.07;4.32;;;9.30;99.90;;;;;;4953356;28;20137;-89
2022/05/22 01:56:13;;;;;;;10.70;4.30;;;10.40;99.90;;;;;;4952910;28;20463;-88
2022/05/22 01:58:38;;;;;;;6.97;5.00;;;9.20;99.90;;;;;;4954322;28;20448;-88
2022/05/22 02:01:06;;;;;;;10.60;5.53;;;10.00;99.90;;;;;;4970541;28;20595;-89
2022/05/22 02:03:32;;;;;;;9.20;4.50;;;9.10;99.90;;;;;;4954836;28;20451;-88
2022/05/22 02:05:58;;;;;;;8.70;3.53;;;9.50;99.90;;;;;;4921394;28;20051;-89
2022/05/22 02:08:23;;;;;;;8.45;4.30;;;9.70;99.90;;;;;;4954319;28;20039;-89
2022/05/22 02:10:56;;;;;;;12.95;5.13;;;9.00;99.90;;;;;;4970903;28;20046;-89
2022/05/22 02:13:26;;;;;;;9.55;4.47;;;9.00;99.90;;;;;;4971148;28;20047;-89
2022/05/22 02:15:52;;;;;;;15.48;4.18;;;10.00;99.90;;;;;;4955061;28;20101;-88
2022/05/22 02:18:19;;;;;;;11.52;3.83;;;9.00;99.90;;;;;;4955004;28;20094;-88
2022/05/22 02:20:45;;;;;;;8.00;4.35;;;9.00;99.90;;;;;;4956817;28;20567;-89
2022/05/22 02:23:11;;;;;;;10.73;3.92;;;10.00;99.90;;;;;;4937780;28;20046;-90
2022/05/22 02:25:43;;;;;;;12.48;4.35;;;9.00;99.90;;;;;;4953823;28;20046;-89
2022/05/22 02:28:11;;;;;;;13.37;4.27;;;9.00;99.90;;;;;;4969173;28;20126;-89
2022/05/22 02:30:40;;;;;;;15.65;4.30;;;10.10;99.90;;;;;;4936873;28;20051;-89
2022/05/22 02:33:07;;;;;;;13.23;4.53;;;10.30;99.90;;;;;;4953342;28;20050;-89
2022/05/22 02:35:33;;;;;;;11.60;4.47;;;9.70;99.90;;;;;;4952033;28;20130;-89
2022/05/22 02:37:59;;;;;;;9.50;4.22;;;9.00;99.90;;;;;;4952859;28;20496;-88
2022/05/22 02:40:27;;;;;;;11.60;4.38;;;9.00;99.90;;;;;;4967876;28;20141;-88
2022/05/22 02:42:54;;;;;;;9.30;4.45;;;9.50;99.90;;;;;;4968714;28;20486;-88
2022/05/22 02:45:22;;;;;;;9.52;4.50;;;9.00;99.90;;;;;;4953148;28;20049;-89
2022/05/22 02:47:49;;;;;;;11.18;3.92;;;9.00;99.90;;;;;;4952171;28;20053;-89
2022/05/22 02:50:17;;;;;;;9.20;4.43;;;9.00;99.90;;;;;;4953177;28;20174;-88
2022/05/22 02:52:43;;;;;;;9.85;4.18;;;9.00;99.90;;;;;;4968084;28;20096;-89
2022/05/22 02:55:09;;;;;;;12.75;4.72;;;9.00;99.90;;;;;;4953368;28;20073;-88
2022/05/22 02:57:37;;;;;;;12.40;5.55;;;10.30;99.90;;;;;;4952628;28;20499;-89
2022/05/22 03:00:12;;;;;;;18.92;5.50;;;9.10;99.90;;;;;;4936754;28;20047;-89
2022/05/22 03:02:38;;;;;;;15.55;4.60;;;9.10;99.90;;;;;;4953094;28;20047;-88
2022/05/22 03:05:04;;;;;;;11.65;4.75;;;10.00;99.90;;;;;;4951893;28;20047;-89
2022/05/22 03:07:30;;;;;;;12.73;4.80;;;9.10;99.90;;;;;;4937049;28;20043;-89
2022/05/22 03:09:55;;;;;;;9.75;4.40;;;9.10;99.90;;;;;;4953112;28;20066;-88
2022/05/22 03:12:23;;;;;;;18.42;4.85;;;10.00;99.90;;;;;;4922151;28;20480;-89
2022/05/22 03:14:52;;;;;;;11.30;4.47;;;10.00;99.90;;;;;;4952784;28;20117;-88
2022/05/22 03:17:19;;;;;;;11.52;4.30;;;9.10;99.90;;;;;;4952036;28;20525;-89
2022/05/22 03:19:44;;;;;;;12.95;5.40;;;9.00;99.90;;;;;;4953750;28;20047;-89
2022/05/22 03:22:11;;;;;;;10.20;5.13;;;9.00;99.90;;;;;;4937050;28;20039;-88
2022/05/22 03:24:38;;;;;;;7.28;5.18;;;10.10;99.90;;;;;;4953555;28;20594;-89
2022/05/22 03:27:06;;;;;;;7.80;4.75;;;9.60;99.90;;;;;;4936384;28;20043;-89
2022/05/22 03:29:32;;;;;;;8.52;4.45;;;9.00;99.90;;;;;;4953368;28;20101;-89
2022/05/22 03:31:58;;;;;;;12.13;4.57;;;8.90;99.90;;;;;;4937036;28;20046;-87
2022/05/22 03:34:24;;;;;;;8.55;4.00;;;8.90;99.90;;;;;;4939357;28;20107;-88
2022/05/22 03:36:51;;;;;;;11.30;4.88;;;9.20;99.90;;;;;;4942316;28;20050;-88
2022/05/22 03:39:17;;;;;;;11.30;4.57;;;9.50;99.90;;;;;;4960014;28;20054;-89
2022/05/22 03:41:43;;;;;;;12.98;4.57;;;9.80;99.90;;;;;;4976137;28;20051;-88
2022/05/22 03:44:09;;;;;;;8.93;4.55;;;8.90;99.90;;;;;;4943116;28;20046;-88
2022/05/22 03:46:35;;;;;;;16.10;4.78;;;8.90;99.90;;;;;;4926135;28;20038;-89
2022/05/22 03:49:00;;;;;;;9.20;4.88;;;8.90;99.90;;;;;;4955140;28;20579;-89
2022/05/22 03:51:27;;;;;;;18.13;4.32;;;9.30;99.90;;;;;;4937946;28;20121;-89
2022/05/22 03:53:53;;;;;;;12.82;3.58;;;8.20;99.90;;;;;;4937506;28;20050;-88
2022/05/22 03:56:20;;;;;;;6.85;3.97;;;9.40;99.90;;;;;;4953596;28;20038;-87
2022/05/22 03:58:46;;;;;;;11.02;4.32;;;8.90;99.90;;;;;;4936757;28;20046;-88
2022/05/22 04:01:12;;;;;;;15.00;4.55;;;8.90;99.90;;;;;;4950504;28;20054;-88
2022/05/22 04:03:38;;;;;;;11.93;3.90;;;10.00;99.90;;;;;;4967854;28;20539;-88
2022/05/22 04:06:06;;;;;;;6.30;3.58;;;9.50;99.90;;;;;;4935241;28;20085;-88
2022/05/22 04:08:33;;;;;;;10.52;4.47;;;9.10;99.90;;;;;;4935325;28;20043;-88
2022/05/22 04:11:06;;;;;;;9.18;4.30;;;9.70;99.90;;;;;;4935958;28;20127;-88
2022/05/22 04:13:32;;;;;;;;;;;8.90;99.90;;;;;;4967575;28;20112;-88
2022/05/22 04:15:57;;;;;;;14.05;4.22;;;9.00;99.90;;;;;;4967715;28;19922;-88
2022/05/22 04:18:23;;;;;;;16.02;4.80;;;9.10;99.90;;;;;;4935103;28;20098;-87
2022/05/22 04:20:49;;;;;;;9.95;5.22;;;9.60;99.90;;;;;;4951396;28;20082;-88
2022/05/22 04:25:59;;;;;;;14.35;5.18;;;9.50;99.90;;;;;;4966944;28;20515;-88
2022/05/22 04:28:27;;;;;;;17.98;5.05;;;9.70;99.90;;;;;;4951636;28;20043;-88
2022/05/22 04:30:54;;;;;;;11.98;4.55;;;9.60;99.90;;;;;;4950938;28;20053;-87
2022/05/22 04:33:20;;;;;;;10.63;4.95;;;9.80;99.90;;;;;;4951797;28;20050;-87
2022/05/22 04:35:47;;;;;;;8.75;5.40;;;9.90;99.90;;;;;;4966841;28;20051;-85
2022/05/22 04:38:13;;;;;;;8.32;4.57;;;10.00;99.90;;;;;;4967482;28;20068;-88
2022/05/22 04:40:40;;;;;;;19.27;4.93;;;10.70;99.90;;;;;;4951275;28;20047;-88
2022/05/22 04:43:05;;;;;;;9.93;4.55;;;11.00;99.90;;;;;;4934512;28;20419;-88
2022/05/22 04:45:34;;;;;;;12.57;4.75;;;10.30;99.90;;;;;;4935006;28;20039;-85
2022/05/22 04:48:00;;;;;;;16.20;3.95;;;11.60;99.90;;;;;;4934096;28;20038;-86
2022/05/22 04:50:26;;;;;;;13.63;4.95;;;11.10;99.90;;;;;;4950827;28;20047;-86
2022/05/22 04:52:52;;;;;;;14.02;3.80;;;10.60;99.90;;;;;;4952025;28;20046;-85
2022/05/22 04:55:17;;;;;;;9.23;3.90;;;10.70;99.90;;;;;;4954586;28;20093;-86
2022/05/22 04:57:43;;;;;;;14.38;4.00;;;10.80;99.90;;;;;;4938711;28;20531;-85
2022/05/22 05:00:11;;;;;;;15.13;4.95;;;12.10;99.90;;;;;;4937781;28;20426;-85
2022/05/22 05:02:38;;;;;;;12.80;3.40;;;10.90;99.90;;;;;;4954378;28;20543;-89
2022/05/22 05:05:11;;;;;;;13.73;3.63;;;11.00;99.90;;;;;;4953857;28;20049;-85
2022/05/22 05:07:40;;;;;;;;;;;11.10;99.90;;;;;;4954602;28;20141;-85
2022/05/22 05:10:08;;;;;;;15.32;4.22;;;11.20;99.90;;;;;;4969425;28;19922;-86
2022/05/22 05:12:36;;;;;;;13.73;3.95;;;11.20;99.90;;;;;;4970090;28;20110;-86
2022/05/22 05:15:03;;;;;;;16.08;3.80;;;11.30;99.90;;;;;;4938927;28;20050;-87
2022/05/22 05:17:29;;;;;;;9.15;3.45;;;11.40;99.90;;;;;;4953884;28;20360;-88
2022/05/22 05:19:55;;;;;;;7.70;3.38;;;11.70;99.90;;;;;;4954073;28;20746;-87
2022/05/22 05:22:20;;;;;;;10.70;3.40;;;11.30;99.90;;;;;;4953138;28;20051;-87
2022/05/22 05:24:46;;;;;;;12.38;4.38;;;12.00;99.90;;;;;;4938344;28;20075;-86
2022/05/22 05:27:12;;;;;;;14.82;3.83;;;11.70;99.90;;;;;;4921432;28;20511;-88
2022/05/22 05:29:37;;;;;;;14.55;3.90;;;11.80;99.90;;;;;;4953475;28;20506;-87
2022/05/22 05:32:04;;;;;;;18.83;5.05;;;12.70;99.90;;;;;;4953693;28;20191;-87
2022/05/22 05:34:29;;;;;;;11.77;3.40;;;12.00;99.90;;;;;;4921277;28;20564;-87
2022/05/22 05:36:55;;;;;;;17.20;4.10;;;12.10;99.90;;;;;;4937909;28;20130;-88
2022/05/22 05:39:21;;;;;;;13.18;3.83;;;13.10;99.90;;;;;;4952427;28;20062;-87
2022/05/22 05:41:47;;;;;;;10.50;3.80;;;12.40;99.90;;;;;;4969661;28;20053;-87
2022/05/22 05:44:12;;;;;;;16.08;3.67;;;12.90;99.90;;;;;;4920949;28;20487;-86
2022/05/22 05:46:39;;;;;;;11.57;3.60;;;12.40;99.90;;;;;;4921333;28;20054;-86
2022/05/22 05:49:06;;;;;;;11.52;3.20;;;12.50;99.90;;;;;;4937493;28;20046;-85
2022/05/22 05:51:32;;;;;;;12.40;3.22;;;13.70;99.90;;;;;;4969093;28;20046;-86
2022/05/22 05:53:58;;;;;;;7.18;3.30;;;13.70;99.90;;;;;;4953604;28;20070;-86
2022/05/22 05:56:24;;;;;;;14.80;3.10;;;13.40;99.90;;;;;;4953304;28;20047;-87
2022/05/22 05:58:50;;;;;;;8.93;2.90;;;12.90;99.90;;;;;;4953646;28;20045;-87
2022/05/22 06:01:17;;;;;;;11.63;3.55;;;13.20;99.90;;;;;;4952525;28;20114;-86
2022/05/22 06:03:44;;;;;;;15.75;3.85;;;13.00;99.90;;;;;;4967996;28;20101;-86
2022/05/22 06:06:11;;;;;;;11.45;3.35;;;13.10;99.90;;;;;;4968904;28;20057;-85
2022/05/22 06:08:37;;;;;;;10.75;3.65;;;13.20;99.90;;;;;;4968407;28;20082;-84
2022/05/22 06:11:03;;;;;;;8.43;4.15;;;13.20;99.90;;;;;;4953060;28;20046;-84
2022/05/22 06:13:29;;;;;;;10.38;3.22;;;13.30;99.90;;;;;;4952198;28;20101;-83
2022/05/22 06:15:55;;;;;;;14.65;3.83;;;13.70;99.90;;;;;;4937609;28;20093;-81
2022/05/22 06:18:21;;;;;;;9.38;3.88;;;13.40;99.90;;;;;;4967868;28;20042;-82
2022/05/22 06:20:47;;;;;;;11.52;4.20;;;14.00;99.90;;;;;;4969308;28;20047;-82
2022/05/22 06:23:13;;;;;;;11.68;3.58;;;13.60;99.90;;;;;;4970299;28;20511;-81
2022/05/22 06:25:44;;;;;;;17.30;4.63;;;13.70;99.90;;;;;;4969681;28;20046;-79
2022/05/22 06:28:14;;;;;;;15.77;4.57;;;13.80;99.90;;;;;;4970386;28;20042;-81
2022/05/22 06:30:40;;;;;;;12.32;4.07;;;13.80;99.90;;;;;;4969098;28;20050;-81
2022/05/22 06:33:17;;;;;;;10.52;4.30;;;14.00;99.90;;;;;;4968744;28;20046;-81
2022/05/22 06:35:46;;;;;;;14.65;3.90;;;14.00;99.90;;;;;;4968414;28;20046;-81
2022/05/22 06:40:57;;;;;;;10.32;3.20;;;14.30;99.90;;;;;;4968333;28;20061;-81
2022/05/22 10:34:00;;;;;;;3.53;0.95;;;21.50;94.10;;;;;;5088713;28;20418;-87
2022/05/22 10:36:32;;;;;;;2.47;0.75;;;21.30;99.90;;;;;;5086821;28;20063;-83
2022/05/22 10:39:09;;;;;;;4.28;0.90;;;21.10;99.90;;;;;;5086587;28;20499;-84
2022/05/22 10:44:32;;;;;;;3.70;0.98;;;20.90;99.90;;;;;;5085433;28;20188;-84
2022/05/22 10:47:02;;;;;;;2.20;0.57;;;20.90;99.90;;;;;;5068865;28;20055;-84
2022/05/22 10:49:41;;;;;;;3.63;0.70;;;20.90;99.90;;;;;;5068872;28;20047;-84
2022/05/22 10:52:10;;;;;;;5.93;0.95;;;20.70;99.90;;;;;;5086984;28;20059;-84
2022/05/22 10:54:47;;;;;;;4.82;0.70;;;20.80;99.90;;;;;;5085250;28;20044;-85
2022/05/22 10:57:19;;;;;;;3.42;0.75;;;21.10;99.90;;;;;;5085621;28;20052;-85
2022/05/22 10:59:47;;;;;;;5.22;0.82;;;21.40;99.20;;;;;;5085239;28;20044;-85
2022/05/22 11:02:29;;;;;;;6.22;0.90;;;21.70;99.90;;;;;;5084998;28;20044;-84
2022/05/22 11:04:57;;;;;;;3.72;0.93;;;21.80;96.10;;;;;;5086433;28;20044;-84
2022/05/22 11:07:29;;;;;;;3.63;0.90;;;21.80;98.70;;;;;;5068067;28;20047;-85
2022/05/22 11:10:04;;;;;;;4.10;0.90;;;21.80;96.30;;;;;;5101967;28;20123;-84
2022/05/22 11:12:30;;;;;;;5.95;0.80;;;22.00;98.80;;;;;;5086258;28;20560;-84
2022/05/22 11:15:15;;;;;;;5.70;0.93;;;22.20;97.50;;;;;;5084850;28;20048;-84
2022/05/22 11:17:41;;;;;;;4.38;0.88;;;22.50;92.30;;;;;;5085137;28;20048;-84
2022/05/22 11:20:23;;;;;;;4.07;0.80;;;22.40;94.80;;;;;;5051342;28;20052;-84
2022/05/22 11:23:20;;;;;;;4.47;0.80;;;22.30;90.20;;;;;;5085095;28;20082;-85
2022/05/22 11:26:18;;;;;;;5.57;1.55;;;21.90;88.10;;;;;;5084677;28;20048;-84
2022/05/22 11:28:49;;;;;;;3.75;0.88;;;21.60;95.20;;;;;;5062201;28;20403;-84
2022/05/22 11:31:32;;;;;;;3.70;0.68;;;21.40;93.60;;;;;;5084173;28;20060;-84
2022/05/22 11:34:19;;;;;;;1.40;0.50;;;21.20;93.10;;;;;;5083262;28;20052;-84
2022/05/22 11:37:16;;;;;;;2.38;0.98;;;21.20;93.60;;;;;;5084664;28;20040;-84
2022/05/22 11:40:02;;;;;;;3.42;0.80;;;21.40;88.40;;;;;;5084396;28;20487;-84
2022/05/22 11:42:34;;;;;;;2.60;0.88;;;21.60;90.30;;;;;;5065577;28;20052;-84
2022/05/22 11:45:12;;;;;;;3.17;0.50;;;21.70;91.90;;;;;;5070996;28;20051;-84
2022/05/22 11:48:03;;;;;;;4.50;0.80;;;21.80;91.50;;;;;;5070635;28;20068;-84
2022/05/22 11:50:33;;;;;;;2.97;0.60;;;21.70;86.10;;;;;;5053026;28;20048;-84
2022/05/22 11:53:30;;;;;;;9.60;1.35;;;21.70;91.20;;;;;;5071364;28;20084;-85
2022/05/22 11:55:58;;;;;;;5.55;1.05;;;21.70;88.10;;;;;;5070568;28;20056;-85
2022/05/22 11:58:48;;;;;;;2.40;0.68;;;21.60;90.40;;;;;;5071207;28;20072;-84
2022/05/22 12:01:23;;;;;;;3.17;0.70;;;21.50;88.20;;;;;;5069780;28;20056;-84
2022/05/22 12:04:26;;;;;;;1.20;0.40;;;21.40;90.80;;;;;;5069288;28;20072;-84
2022/05/22 12:06:53;;;;;;;5.47;0.70;;;21.50;88.10;;;;;;5052628;28;20048;-83
2022/05/22 12:09:37;;;;;;;3.22;0.70;;;21.60;91.60;;;;;;5068933;28;20054;-83
2022/05/22 12:12:21;;;;;;;3.97;0.77;;;21.70;87.70;;;;;;5069425;28;20500;-83
2022/05/22 12:15:03;;;;;;;3.05;0.57;;;21.70;85.10;;;;;;5069635;28;20372;-83
2022/05/22 12:17:38;;;;;;;2.78;0.63;;;21.60;90.20;;;;;;5070096;28;20050;-84
2022/05/22 12:20:13;;;;;;;6.60;1.08;;;21.60;90.10;;;;;;5070634;28;20032;-83
2022/05/22 12:23:13;;;;;;;3.90;0.60;;;21.70;88.70;;;;;;5068770;28;20086;-84
2022/05/22 12:26:03;;;;;;;1.75;0.50;;;22.00;89.50;;;;;;5065320;28;20214;-83
2022/05/22 12:28:41;;;;;;;4.60;1.20;;;22.40;83.80;;;;;;5036946;28;20131;-83
2022/05/22 12:31:13;;;;;;;4.13;0.57;;;22.70;81.90;;;;;;5068640;28;20165;-83
2022/05/22 12:33:39;;;;;;;3.17;0.50;;;22.70;81.00;;;;;;5052210;28;20044;-84
2022/05/22 12:36:06;;;;;;;5.22;0.93;;;22.60;80.60;;;;;;5070539;28;20044;-84
2022/05/22 12:38:40;;;;;;;10.32;4.38;;;22.50;80.70;;;;;;5051392;28;20052;-84
2022/05/22 12:41:17;;;;;;;2.63;1.02;;;22.50;82.30;;;;;;5070442;28;20036;-83
2022/05/22 12:43:44;;;;;;;2.55;0.80;;;22.50;79.70;;;;;;5052213;28;20505;-84
2022/05/22 12:46:12;;;;;;;5.85;1.10;;;22.50;81.60;;;;;;5035401;28;20188;-84
2022/05/22 12:48:44;;;;;;;4.38;0.70;;;22.60;82.80;;;;;;5068504;28;20044;-84
2022/05/22 12:51:18;;;;;;;2.47;0.75;;;22.50;81.60;;;;;;5051603;28;20044;-84
2022/05/22 12:53:49;;;;;;;2.38;0.68;;;22.30;80.90;;;;;;5068525;28;20040;-84
2022/05/22 12:56:40;;;;;;;3.45;1.08;;;22.30;80.00;;;;;;5067134;28;20128;-84
2022/05/22 12:59:28;;;;;;;5.25;0.85;;;22.40;81.80;;;;;;5051616;28;20072;-84
2022/05/22 13:01:59;;;;;;;3.53;0.85;;;22.70;76.70;;;;;;5051950;28;20036;-83
2022/05/22 13:04:37;;;;;;;4.90;0.68;;;23.00;80.30;;;;;;5067967;28;20126;-84
2022/05/22 13:07:17;;;;;;;2.92;0.60;;;23.20;75.10;;;;;;5069715;28;20045;-84
2022/05/22 13:09:52;;;;;;;4.38;1.15;;;23.30;67.70;;;;;;5068497;28;20395;-84
2022/05/22 13:12:21;;;;;;;3.72;0.63;;;23.20;73.50;;;;;;5050998;28;20048;-83
2022/05/22 13:14:51;;;;;;;3.55;0.80;;;23.30;76.40;;;;;;5051814;28;20044;-84
2022/05/22 13:17:40;;;;;;;5.15;0.75;;;23.40;74.60;;;;;;5067682;28;20075;-84
2022/05/22 13:20:22;;;;;;;5.30;0.50;;;23.30;70.70;;;;;;5068380;28;20072;-84
2022/05/22 13:22:48;;;;;;;4.70;0.83;;;23.40;76.00;;;;;;5067938;28;20127;-84
2022/05/22 13:25:30;;;;;;;4.15;0.77;;;23.60;75.80;;;;;;5050767;28;20170;-84
2022/05/22 13:27:56;;;;;;;2.67;0.55;;;23.70;68.80;;;;;;5067920;28;20139;-84
2022/05/22 13:30:28;;;;;;;3.10;0.60;;;23.80;71.20;;;;;;5050618;28;20143;-84
2022/05/22 13:33:02;;;;;;;3.58;0.55;;;23.90;69.90;;;;;;5067555;28;20415;-84
2022/05/22 13:35:32;;;;;;;4.55;0.70;;;24.00;70.00;;;;;;5069151;28;20051;-83
2022/05/22 13:37:58;;;;;;;4.93;0.85;;;24.00;65.90;;;;;;5050953;28;20096;-84
2022/05/22 13:40:43;;;;;;;4.65;0.73;;;24.00;66.10;;;;;;5034796;28;20483;-84
2022/05/22 13:43:37;;;;;;;4.50;0.80;;;23.90;65.30;;;;;;5068519;28;20450;-84
2022/05/22 13:46:40;;;;;;;3.53;0.88;;;23.90;64.60;;;;;;5050785;28;20059;-84
2022/05/22 13:49:11;;;;;;;5.38;0.60;;;23.90;64.20;;;;;;5067293;28;20123;-84
2022/05/22 13:54:40;;;;;;;3.58;0.90;;;24.00;66.10;;;;;;5068684;28;20067;-83
2022/05/22 13:57:11;;;;;;;2.67;0.90;;;24.00;64.90;;;;;;5068898;28;20048;-84
2022/05/22 13:59:47;;;;;;;4.20;1.20;;;23.90;65.70;;;;;;5050480;28;20075;-84
2022/05/22 14:02:18;;;;;;;3.47;0.85;;;23.90;65.10;;;;;;5067359;28;20056;-84
2022/05/22 14:04:46;;;;;;;6.70;1.08;;;24.40;65.90;;;;;;5050128;28;20503;-84
2022/05/22 14:07:28;;;;;;;3.85;0.73;;;23.50;66.40;;;;;;5050477;28;20048;-84
2022/05/22 14:09:55;;;;;;;2.10;0.80;;;23.50;63.40;;;;;;5050427;28;20040;-83
2022/05/22 14:12:39;;;;;;;3.45;0.93;;;23.40;66.60;;;;;;5066753;28;20067;-84
2022/05/22 14:15:19;;;;;;;5.18;1.08;;;23.30;65.10;;;;;;5050148;28;20044;-83
2022/05/22 14:17:47;;;;;;;2.08;0.55;;;23.10;67.10;;;;;;5068207;28;20226;-84
2022/05/22 14:20:18;;;;;;;3.03;1.10;;;22.90;68.20;;;;;;5051046;28;20413;-84
2022/05/22 14:22:47;;;;;;;4.15;1.02;;;22.60;69.60;;;;;;5050997;28;20040;-84
2022/05/22 14:25:20;;;;;;;5.57;0.80;;;22.40;71.60;;;;;;5066133;28;20055;-84
2022/05/22 14:27:52;;;;;;;6.07;1.02;;;22.40;74.20;;;;;;5050151;28;20048;-85
2022/05/22 14:30:32;;;;;;;2.42;0.70;;;22.40;75.00;;;;;;5066427;28;20041;-84
2022/05/22 14:33:07;;;;;;;4.82;1.08;;;22.50;76.80;;;;;;5049404;28;20515;-85
2022/05/22 14:35:37;;;;;;;3.55;0.70;;;22.60;76.30;;;;;;5049036;28;20048;-85
2022/05/22 14:38:13;;;;;;;4.63;1.23;;;22.60;75.80;;;;;;5065654;28;20041;-84
2022/05/22 14:41:11;;;;;;;3.72;0.70;;;22.50;74.60;;;;;;5049266;28;20052;-84
2022/05/22 14:43:41;;;;;;;4.13;0.85;;;22.50;75.20;;;;;;5040708;28;20053;-84
2022/05/22 14:46:12;;;;;;;5.28;1.08;;;22.30;75.40;;;;;;5065884;28;20079;-84
2022/05/22 14:48:42;;;;;;;3.37;0.70;;;22.20;76.00;;;;;;5065712;28;20040;-84
2022/05/22 14:51:29;;;;;;;2.38;1.02;;;22.00;78.70;;;;;;5065895;28;20048;-84
2022/05/22 14:54:32;;;;;;;3.22;0.90;;;21.90;79.10;;;;;;5065938;28;20389;-84
2022/05/22 14:57:08;;;;;;;3.35;0.73;;;21.80;78.80;;;;;;5049088;28;20044;-84
2022/05/22 14:59:44;;;;;;;16.73;7.03;;;21.70;80.70;;;;;;5065177;28;20052;-84
2022/05/22 15:02:34;;;;;;;3.40;1.13;;;21.60;80.60;;;;;;5065711;28;20044;-85
2022/05/22 15:05:11;;;;;;;4.90;0.93;;;21.60;81.60;;;;;;5064522;28;20063;-84
2022/05/22 15:07:37;;;;;;;8.23;1.38;;;21.50;83.00;;;;;;5065708;28;20084;-84
2022/05/22 15:10:20;;;;;;;4.55;1.23;;;21.50;84.90;;;;;;5032152;28;20055;-85
2022/05/22 15:12:47;;;;;;;3.22;0.90;;;21.50;83.90;;;;;;5064186;28;20040;-84
2022/05/22 15:15:33;;;;;;;5.97;1.40;;;21.40;84.10;;;;;;5065400;28;20983;-84
2022/05/22 15:18:15;;;;;;;4.07;1.00;;;21.30;79.70;;;;;;5047939;28;20510;-86
2022/05/22 15:20:41;;;;;;;4.30;1.47;;;21.30;85.30;;;;;;5052695;28;20207;-85
2022/05/22 15:26:14;;;;;;;7.00;1.30;;;21.00;83.30;;;;;;5068142;28;20052;-84
2022/05/22 15:28:40;;;;;;;7.07;1.00;;;20.90;84.90;;;;;;5053250;28;20084;-84
2022/05/22 15:31:08;;;;;;;2.67;0.70;;;20.80;86.00;;;;;;5068783;28;20534;-84
2022/05/22 15:33:46;;;;;;;4.05;1.23;;;20.80;85.70;;;;;;5068813;28;20060;-84
2022/05/22 15:36:21;;;;;;;3.80;0.68;;;20.70;85.40;;;;;;5052342;28;20051;-84
2022/05/22 15:39:10;;;;;;;3.67;0.80;;;20.70;84.80;;;;;;5051036;28;20044;-84
2022/05/22 15:41:42;;;;;;;4.50;0.77;;;20.70;87.30;;;;;;5069075;28;20405;-84
2022/05/22 15:44:21;;;;;;;5.90;1.08;;;20.80;87.60;;;;;;5069249;28;20507;-84
2022/05/22 15:46:57;;;;;;;6.45;0.95;;;20.80;89.80;;;;;;5050836;28;20514;-84
2022/05/22 15:52:21;;;;;;;7.13;1.65;;;20.80;90.70;;;;;;5068248;28;20135;-84
2022/05/22 15:54:47;;;;;;;3.67;1.15;;;20.80;91.20;;;;;;5068171;28;20127;-82
2022/05/22 15:57:14;;;;;;;4.97;1.02;;;20.80;91.40;;;;;;5068481;28;20084;-84
2022/05/22 15:59:40;;;;;;;3.78;0.73;;;21.00;91.70;;;;;;5051050;28;20118;-84
2022/05/22 16:02:21;;;;;;;5.60;0.85;;;21.20;90.80;;;;;;5035810;28;20480;-81
2022/05/22 16:04:47;;;;;;;3.88;0.90;;;21.30;88.00;;;;;;5067315;28;20475;-80
2022/05/22 16:07:14;;;;;;;7.43;0.90;;;21.20;90.10;;;;;;5068499;28;20052;-84
2022/05/22 16:09:40;;;;;;;4.53;0.65;;;21.20;89.10;;;;;;5069304;28;20534;-80
2022/05/22 16:12:08;;;;;;;6.95;2.50;;;21.10;89.20;;;;;;5050900;28;20450;-80
2022/05/22 16:14:34;;;;;;;8.93;3.10;;;21.00;89.90;;;;;;5052095;28;20037;-81
2022/05/22 16:17:00;;;;;;;8.20;2.17;;;20.80;90.60;;;;;;5067267;28;20177;-79
2022/05/22 16:19:34;;;;;;;4.00;1.52;;;20.80;91.00;;;;;;5068496;28;20086;-81
2022/05/22 16:25:20;;;;;;;5.45;1.10;;;20.70;91.30;;;;;;5109097;27;20390;-79
2022/05/22 16:27:46;;;;;;;10.85;1.13;;;20.80;91.00;;;;;;5108662;28;20058;-86
2022/05/22 16:30:13;;;;;;;7.20;1.10;;;20.90;90.90;;;;;;5107136;28;20036;-81
2022/05/22 16:32:40;;;;;;;9.45;1.50;;;20.90;89.30;;;;;;5107689;28;20047;-80
2022/05/22 16:35:09;;;;;;;4.35;0.80;;;20.90;88.70;;;;;;5108175;28;20123;-80
2022/05/22 16:37:35;;;;;;;6.10;0.90;;;20.80;87.80;;;;;;5091061;28;20197;-80
2022/05/22 16:40:01;;;;;;;8.05;1.90;;;20.80;88.60;;;;;;5106797;28;20188;-80
2022/05/22 16:42:27;;;;;;;6.13;2.00;;;20.80;88.20;;;;;;5090731;28;20090;-79
2022/05/22 16:44:52;;;;;;;2.65;1.58;;;20.70;88.30;;;;;;5107022;28;20039;-79
2022/05/22 16:53:04;;;;;;;0.82;0.40;;;20.40;86.80;;;;;;5106617;28;20052;-79
2022/05/22 16:55:37;;;;;;;4.03;0.82;;;20.40;89.50;;;;;;5107267;28;20483;-82
2022/05/22 16:58:10;;;;;;;5.47;0.80;;;20.40;89.70;;;;;;5105798;28;20047;-85
2022/05/22 17:00:38;;;;;;;4.28;1.08;;;20.40;90.00;;;;;;5088892;28;20047;-85
2022/05/22 17:03:04;;;;;;;4.03;0.68;;;20.40;89.40;;;;;;5105225;28;20082;-85
2022/05/22 17:05:32;;;;;;;4.32;0.93;;;20.40;88.90;;;;;;5071159;28;20071;-86
2022/05/22 17:07:58;;;;;;;5.82;0.85;;;20.30;88.20;;;;;;5105091;28;20050;-85
2022/05/22 17:10:24;;;;;;;7.18;1.13;;;20.30;88.60;;;;;;5105615;28;20118;-87
2022/05/22 17:12:50;;;;;;;5.93;0.88;;;20.30;88.90;;;;;;5070705;28;20573;-85
2022/05/22 17:15:16;;;;;;;3.35;0.65;;;20.30;89.90;;;;;;5105468;28;20036;-81
2022/05/22 17:17:42;;;;;;;2.30;0.75;;;20.30;88.40;;;;;;5071075;28;20474;-84
2022/05/22 17:20:08;;;;;;;7.38;0.90;;;20.20;88.40;;;;;;5073959;28;20093;-82
2022/05/22 17:22:35;;;;;;;4.88;0.90;;;20.20;88.30;;;;;;5076681;28;20071;-84